sensor_id;sensor_type;location;lat;lon;timestamp;pressure;altitude;pressure_sealevel;temperature;humidity
13709;BME280;54933;51.908;7.730;2023-05-25T00:00:24;101861.94;;;23.32;65.62
13709;BME280;54933;51.908;7.730;2023-05-25T00:02:50;101856.50;;;23.32;65.90
13709;BME280;54933;51.908;7.730;2023-05-25T00:05:18;101868.19;;;23.33;65.83
13709;BME280;54933;51.908;7.730;2023-05-25T00:07:44;101866.50;;;23.32;65.86
13709;BME280;54933;51.908;7.730;2023-05-25T00:10:09;101866.50;;;23.32;65.84
13709;BME280;54933;51.908;7.730;2023-05-25T00:12:35;101863.00;;;23.31;65.77
13709;BME280;54933;51.908;7.730;2023-05-25T00:15:02;101857.34;;;23.33;65.76
13709;BME280;54933;51.908;7.730;2023-05-25T00:17:27;101861.09;;;23.32;65.96
13709;BME280;54933;51.908;7.730;2023-05-25T00:19:54;101860.28;;;23.31;65.93
13709;BME280;54933;51.908;7.730;2023-05-25T00:22:21;101861.94;;;23.32;65.50
13709;BME280;54933;51.908;7.730;2023-05-25T00:24:47;101861.94;;;23.32;65.92
13709;BME280;54933;51.908;7.730;2023-05-25T00:27:12;101851.28;;;23.31;65.84
13709;BME280;54933;51.908;7.730;2023-05-25T00:29:37;101850.25;;;23.32;65.76
13709;BME280;54933;51.908;7.730;2023-05-25T00:32:03;101850.25;;;23.32;65.89
13709;BME280;54933;51.908;7.730;2023-05-25T00:34:28;101852.13;;;23.31;66.06
13709;BME280;54933;51.908;7.730;2023-05-25T00:36:53;101844.00;;;23.31;65.74
13709;BME280;54933;51.908;7.730;2023-05-25T00:39:19;101848.38;;;23.32;65.76
13709;BME280;54933;51.908;7.730;2023-05-25T00:41:46;101854.84;;;23.31;65.76
13709;BME280;54933;51.908;7.730;2023-05-25T00:44:13;101857.56;;;23.31;65.96
13709;BME280;54933;51.908;7.730;2023-05-25T00:46:50;101857.56;;;23.31;65.80
13709;BME280;54933;51.908;7.730;2023-05-25T00:49:19;101852.13;;;23.31;65.98
13709;BME280;54933;51.908;7.730;2023-05-25T00:51:46;101859.22;;;23.32;65.90
13709;BME280;54933;51.908;7.730;2023-05-25T00:54:13;101860.28;;;23.31;65.83
13709;BME280;54933;51.908;7.730;2023-05-25T00:56:39;101854.84;;;23.31;65.66
13709;BME280;54933;51.908;7.730;2023-05-25T00:59:06;101860.28;;;23.31;65.74
13709;BME280;54933;51.908;7.730;2023-05-25T01:01:34;101860.28;;;23.31;65.97
13709;BME280;54933;51.908;7.730;2023-05-25T01:04:08;101864.84;;;23.31;65.75
13709;BME280;54933;51.908;7.730;2023-05-25T01:06:35;101854.84;;;23.31;65.84
13709;BME280;54933;51.908;7.730;2023-05-25T01:09:03;101860.47;;;23.30;65.79
13709;BME280;54933;51.908;7.730;2023-05-25T01:11:35;101877.38;;;23.32;65.76
13709;BME280;54933;51.908;7.730;2023-05-25T01:14:00;101873.19;;;23.29;65.58
13709;BME280;54933;51.908;7.730;2023-05-25T01:16:27;101874.84;;;23.30;65.78
13709;BME280;54933;51.908;7.730;2023-05-25T01:18:53;101876.75;;;23.30;65.59
13709;BME280;54933;51.908;7.730;2023-05-25T01:21:22;101866.94;;;23.29;65.88
13709;BME280;54933;51.908;7.730;2023-05-25T01:24:41;101869.44;;;23.30;65.74
13709;BME280;54933;51.908;7.730;2023-05-25T01:27:23;101874.03;;;23.30;65.90
13709;BME280;54933;51.908;7.730;2023-05-25T01:29:52;101869.44;;;23.30;65.75
13709;BME280;54933;51.908;7.730;2023-05-25T01:32:20;101866.94;;;23.29;65.52
13709;BME280;54933;51.908;7.730;2023-05-25T01:34:47;101873.19;;;23.29;65.78
13709;BME280;54933;51.908;7.730;2023-05-25T01:37:12;101874.22;;;23.28;65.61
13709;BME280;54933;51.908;7.730;2023-05-25T01:39:40;101875.91;;;23.29;65.59
13709;BME280;54933;51.908;7.730;2023-05-25T01:42:06;101871.50;;;23.28;65.64
13709;BME280;54933;51.908;7.730;2023-05-25T01:44:32;101883.19;;;23.29;66.29
13709;BME280;54933;51.908;7.730;2023-05-25T01:47:11;101868.78;;;23.28;65.71
13709;BME280;54933;51.908;7.730;2023-05-25T01:50:29;101872.34;;;23.29;65.78
13709;BME280;54933;51.908;7.730;2023-05-25T01:53:01;101873.19;;;23.29;65.79
13709;BME280;54933;51.908;7.730;2023-05-25T01:55:28;101869.84;;;23.27;65.69
13709;BME280;54933;51.908;7.730;2023-05-25T01:57:58;101880.50;;;23.29;65.75
13709;BME280;54933;51.908;7.730;2023-05-25T02:00:25;101871.50;;;23.28;65.71
13709;BME280;54933;51.908;7.730;2023-05-25T02:02:51;101871.50;;;23.28;65.70
13709;BME280;54933;51.908;7.730;2023-05-25T02:05:19;101865.28;;;23.28;65.80
13709;BME280;54933;51.908;7.730;2023-05-25T02:07:44;101871.50;;;23.28;65.59
13709;BME280;54933;51.908;7.730;2023-05-25T02:10:10;101873.41;;;23.28;65.52
13709;BME280;54933;51.908;7.730;2023-05-25T02:12:35;101870.69;;;23.28;65.79
13709;BME280;54933;51.908;7.730;2023-05-25T02:15:00;101871.50;;;23.28;65.78
13709;BME280;54933;51.908;7.730;2023-05-25T02:17:26;101871.50;;;23.28;66.01
13709;BME280;54933;51.908;7.730;2023-05-25T02:19:52;101873.41;;;23.28;65.92
13709;BME280;54933;51.908;7.730;2023-05-25T02:22:21;101871.50;;;23.28;65.93
13709;BME280;54933;51.908;7.730;2023-05-25T02:24:47;101867.13;;;23.27;66.03
13709;BME280;54933;51.908;7.730;2023-05-25T02:27:12;101867.13;;;23.27;65.79
13709;BME280;54933;51.908;7.730;2023-05-25T02:29:38;101864.44;;;23.27;65.61
13709;BME280;54933;51.908;7.730;2023-05-25T02:32:04;101858.16;;;23.27;65.80
13709;BME280;54933;51.908;7.730;2023-05-25T02:34:29;101860.66;;;23.28;65.35
13709;BME280;54933;51.908;7.730;2023-05-25T02:36:54;101864.44;;;23.27;65.62
13709;BME280;54933;51.908;7.730;2023-05-25T02:39:20;101869.84;;;23.27;65.65
13709;BME280;54933;51.908;7.730;2023-05-25T02:41:45;101864.44;;;23.27;65.70
13709;BME280;54933;51.908;7.730;2023-05-25T02:44:10;101881.53;;;23.28;65.88
13709;BME280;54933;51.908;7.730;2023-05-25T02:46:36;101886.13;;;23.27;65.82
13709;BME280;54933;51.908;7.730;2023-05-25T02:49:01;101880.69;;;23.27;65.61
13709;BME280;54933;51.908;7.730;2023-05-25T02:51:27;101887.78;;;23.28;65.90
13709;BME280;54933;51.908;7.730;2023-05-25T02:53:52;101874.44;;;23.27;65.76
13709;BME280;54933;51.908;7.730;2023-05-25T02:56:18;101875.28;;;23.27;65.99
13709;BME280;54933;51.908;7.730;2023-05-25T02:58:43;101869.00;;;23.27;65.82
13709;BME280;54933;51.908;7.730;2023-05-25T03:01:08;101875.28;;;23.27;65.60
13709;BME280;54933;51.908;7.730;2023-05-25T03:03:35;101884.47;;;23.26;65.74
13709;BME280;54933;51.908;7.730;2023-05-25T03:06:01;101891.53;;;23.27;65.82
13709;BME280;54933;51.908;7.730;2023-05-25T03:08:28;101891.53;;;23.27;65.64
13709;BME280;54933;51.908;7.730;2023-05-25T03:10:53;101895.31;;;23.26;65.62
13709;BME280;54933;51.908;7.730;2023-05-25T03:13:19;101901.53;;;23.27;65.60
13709;BME280;54933;51.908;7.730;2023-05-25T03:15:44;101894.44;;;23.26;65.78
13709;BME280;54933;51.908;7.730;2023-05-25T03:18:10;101911.59;;;23.26;65.58
13709;BME280;54933;51.908;7.730;2023-05-25T03:20:35;101906.16;;;23.26;65.80
13709;BME280;54933;51.908;7.730;2023-05-25T03:23:01;101917.00;;;23.26;65.60
13709;BME280;54933;51.908;7.730;2023-05-25T03:25:26;101918.84;;;23.26;65.73
13709;BME280;54933;51.908;7.730;2023-05-25T03:27:52;101910.69;;;23.26;65.71
13709;BME280;54933;51.908;7.730;2023-05-25T03:30:18;101916.13;;;23.26;65.67
13709;BME280;54933;51.908;7.730;2023-05-25T03:32:44;101920.72;;;23.25;65.65
13709;BME280;54933;51.908;7.730;2023-05-25T03:35:09;101926.97;;;23.26;65.65
13709;BME280;54933;51.908;7.730;2023-05-25T03:37:34;101912.56;;;23.25;65.78
13709;BME280;54933;51.908;7.730;2023-05-25T03:40:00;101915.28;;;23.25;65.94
13709;BME280;54933;51.908;7.730;2023-05-25T03:42:25;101925.31;;;23.25;65.64
13709;BME280;54933;51.908;7.730;2023-05-25T03:44:50;101926.13;;;23.25;65.52
13709;BME280;54933;51.908;7.730;2023-05-25T03:47:15;101928.03;;;23.25;65.85
13709;BME280;54933;51.908;7.730;2023-05-25T03:49:41;101930.75;;;23.25;65.72
13709;BME280;54933;51.908;7.730;2023-05-25T03:52:06;101924.47;;;23.24;65.62
13709;BME280;54933;51.908;7.730;2023-05-25T03:54:31;101928.84;;;23.25;65.83
13709;BME280;54933;51.908;7.730;2023-05-25T03:56:57;101929.91;;;23.24;65.67
13709;BME280;54933;51.908;7.730;2023-05-25T03:59:23;101929.06;;;23.24;65.73
13709;BME280;54933;51.908;7.730;2023-05-25T04:01:49;101924.47;;;23.24;65.98
13709;BME280;54933;51.908;7.730;2023-05-25T04:04:15;101936.16;;;23.25;65.96
13709;BME280;54933;51.908;7.730;2023-05-25T04:06:40;101929.91;;;23.24;65.69
13709;BME280;54933;51.908;7.730;2023-05-25T04:09:06;101938.03;;;23.24;65.69
13709;BME280;54933;51.908;7.730;2023-05-25T04:11:31;101940.75;;;23.24;65.75
13709;BME280;54933;51.908;7.730;2023-05-25T04:13:57;101941.59;;;23.25;65.92
13709;BME280;54933;51.908;7.730;2023-05-25T04:16:23;101940.75;;;23.24;65.93
13709;BME280;54933;51.908;7.730;2023-05-25T04:18:50;101928.22;;;23.23;65.67
13709;BME280;54933;51.908;7.730;2023-05-25T04:21:15;101940.75;;;23.24;65.88
13709;BME280;54933;51.908;7.730;2023-05-25T04:23:40;101938.03;;;23.24;66.03
13709;BME280;54933;51.908;7.730;2023-05-25T04:26:07;101943.47;;;23.24;65.69
13709;BME280;54933;51.908;7.730;2023-05-25T04:28:34;101952.44;;;23.25;65.84
13709;BME280;54933;51.908;7.730;2023-05-25T04:30:59;101956.16;;;23.24;65.79
13709;BME280;54933;51.908;7.730;2023-05-25T04:33:25;101948.88;;;23.24;65.94
13709;BME280;54933;51.908;7.730;2023-05-25T04:35:54;101956.16;;;23.24;65.79
13709;BME280;54933;51.908;7.730;2023-05-25T04:38:19;101949.94;;;23.23;65.77
13709;BME280;54933;51.908;7.730;2023-05-25T04:40:44;101961.59;;;23.24;65.88
13709;BME280;54933;51.908;7.730;2023-05-25T04:43:13;101967.88;;;23.24;65.98
13709;BME280;54933;51.908;7.730;2023-05-25T04:45:42;101973.28;;;23.24;65.89
13709;BME280;54933;51.908;7.730;2023-05-25T04:48:09;101968.91;;;23.23;65.88
13709;BME280;54933;51.908;7.730;2023-05-25T04:50:35;101967.88;;;23.24;65.62
13709;BME280;54933;51.908;7.730;2023-05-25T04:53:01;101974.13;;;23.25;65.52
13709;BME280;54933;51.908;7.730;2023-05-25T04:55:26;101977.06;;;23.23;65.79
13709;BME280;54933;51.908;7.730;2023-05-25T04:57:52;101975.34;;;23.22;65.83
13709;BME280;54933;51.908;7.730;2023-05-25T05:00:18;101977.06;;;23.23;65.75
13709;BME280;54933;51.908;7.730;2023-05-25T05:02:44;101982.47;;;23.23;65.79
13709;BME280;54933;51.908;7.730;2023-05-25T05:05:10;101983.28;;;23.24;65.55
13709;BME280;54933;51.908;7.730;2023-05-25T05:07:35;101984.34;;;23.23;65.85
13709;BME280;54933;51.908;7.730;2023-05-25T05:10:01;101987.91;;;23.23;65.57
13709;BME280;54933;51.908;7.730;2023-05-25T05:12:26;101992.47;;;23.23;65.71
13709;BME280;54933;51.908;7.730;2023-05-25T05:14:51;101986.22;;;23.22;65.68
13709;BME280;54933;51.908;7.730;2023-05-25T05:17:17;101988.91;;;23.22;65.82
13709;BME280;54933;51.908;7.730;2023-05-25T05:19:42;101991.63;;;23.22;65.50
13709;BME280;54933;51.908;7.730;2023-05-25T05:22:08;101988.91;;;23.22;65.79
13709;BME280;54933;51.908;7.730;2023-05-25T05:24:34;101996.22;;;23.22;65.52
13709;BME280;54933;51.908;7.730;2023-05-25T05:26:59;101997.91;;;23.23;65.44
13709;BME280;54933;51.908;7.730;2023-05-25T05:29:25;101998.91;;;23.22;65.63
13709;BME280;54933;51.908;7.730;2023-05-25T05:31:53;102001.63;;;23.22;65.50
13709;BME280;54933;51.908;7.730;2023-05-25T05:34:18;102003.53;;;23.21;65.41
13709;BME280;54933;51.908;7.730;2023-05-25T05:36:44;102001.63;;;23.22;65.67
13709;BME280;54933;51.908;7.730;2023-05-25T05:39:09;101999.75;;;23.22;65.60
13709;BME280;54933;51.908;7.730;2023-05-25T05:41:34;101999.13;;;23.20;65.70
13709;BME280;54933;51.908;7.730;2023-05-25T05:44:00;102007.06;;;23.22;65.40
13709;BME280;54933;51.908;7.730;2023-05-25T05:46:25;102008.94;;;23.21;65.54
13709;BME280;54933;51.908;7.730;2023-05-25T05:48:51;102008.94;;;23.21;65.85
13709;BME280;54933;51.908;7.730;2023-05-25T05:51:16;102014.38;;;23.21;65.47
13709;BME280;54933;51.908;7.730;2023-05-25T05:53:41;102017.09;;;23.21;65.71
13709;BME280;54933;51.908;7.730;2023-05-25T05:56:15;102027.94;;;23.21;65.52
13709;BME280;54933;51.908;7.730;2023-05-25T05:58:40;102027.09;;;23.21;65.63
13709;BME280;54933;51.908;7.730;2023-05-25T06:01:06;102027.94;;;23.21;65.47
13709;BME280;54933;51.908;7.730;2023-05-25T06:03:32;102040.66;;;23.21;65.32
13709;BME280;54933;51.908;7.730;2023-05-25T06:05:58;102047.94;;;23.20;65.74
13709;BME280;54933;51.908;7.730;2023-05-25T06:08:23;102053.38;;;23.20;65.44
13709;BME280;54933;51.908;7.730;2023-05-25T06:10:49;102056.91;;;23.21;65.56
13709;BME280;54933;51.908;7.730;2023-05-25T06:13:14;102053.38;;;23.20;65.75
13709;BME280;54933;51.908;7.730;2023-05-25T06:15:40;102051.50;;;23.21;65.71
13709;BME280;54933;51.908;7.730;2023-05-25T06:18:05;102056.91;;;23.21;65.70
13709;BME280;54933;51.908;7.730;2023-05-25T06:20:30;102050.66;;;23.20;65.81
13709;BME280;54933;51.908;7.730;2023-05-25T06:22:55;102050.66;;;23.20;65.76
13709;BME280;54933;51.908;7.730;2023-05-25T06:25:21;102051.69;;;23.19;65.56
13709;BME280;54933;51.908;7.730;2023-05-25T06:27:46;102058.78;;;23.20;65.38
13709;BME280;54933;51.908;7.730;2023-05-25T06:30:11;102052.75;;;23.18;65.62
13709;BME280;54933;51.908;7.730;2023-05-25T06:32:37;102062.53;;;23.19;65.67
13709;BME280;54933;51.908;7.730;2023-05-25T06:35:03;102059.63;;;23.21;65.64
13709;BME280;54933;51.908;7.730;2023-05-25T06:37:29;102058.78;;;23.20;65.45
13709;BME280;54933;51.908;7.730;2023-05-25T06:39:59;102064.22;;;23.20;65.35
13709;BME280;54933;51.908;7.730;2023-05-25T06:42:24;102058.78;;;23.20;65.55
13709;BME280;54933;51.908;7.730;2023-05-25T06:44:50;102063.38;;;23.20;65.35
13709;BME280;54933;51.908;7.730;2023-05-25T06:47:15;102057.13;;;23.19;65.66
13709;BME280;54933;51.908;7.730;2023-05-25T06:49:40;102063.38;;;23.20;65.53
13709;BME280;54933;51.908;7.730;2023-05-25T06:52:06;102067.75;;;23.21;65.35
13709;BME280;54933;51.908;7.730;2023-05-25T06:54:31;102062.53;;;23.19;65.24
13709;BME280;54933;51.908;7.730;2023-05-25T06:56:57;102059.84;;;23.19;65.63
13709;BME280;54933;51.908;7.730;2023-05-25T06:59:22;102067.97;;;23.19;65.47
13709;BME280;54933;51.908;7.730;2023-05-25T07:01:47;102062.53;;;23.19;65.47
13709;BME280;54933;51.908;7.730;2023-05-25T07:04:12;102067.97;;;23.19;65.46
13709;BME280;54933;51.908;7.730;2023-05-25T07:06:38;102070.69;;;23.19;65.71
13709;BME280;54933;51.908;7.730;2023-05-25T07:09:03;102069.03;;;23.18;65.35
13709;BME280;54933;51.908;7.730;2023-05-25T07:11:28;102069.84;;;23.19;65.24
13709;BME280;54933;51.908;7.730;2023-05-25T07:13:54;102072.53;;;23.19;65.52
13709;BME280;54933;51.908;7.730;2023-05-25T07:16:19;102077.16;;;23.18;65.16
13709;BME280;54933;51.908;7.730;2023-05-25T07:18:45;102078.81;;;23.19;65.31
13709;BME280;54933;51.908;7.730;2023-05-25T07:21:10;102082.56;;;23.18;65.34
13709;BME280;54933;51.908;7.730;2023-05-25T07:23:36;102075.47;;;23.17;65.35
13709;BME280;54933;51.908;7.730;2023-05-25T07:26:02;102077.16;;;23.18;65.48
13709;BME280;54933;51.908;7.730;2023-05-25T07:28:27;102077.16;;;23.18;65.60
13709;BME280;54933;51.908;7.730;2023-05-25T07:30:53;102077.16;;;23.18;65.31
13709;BME280;54933;51.908;7.730;2023-05-25T07:33:18;102086.09;;;23.19;65.25
13709;BME280;54933;51.908;7.730;2023-05-25T07:35:43;102082.56;;;23.18;65.52
13709;BME280;54933;51.908;7.730;2023-05-25T07:38:08;102079.88;;;23.18;65.38
13709;BME280;54933;51.908;7.730;2023-05-25T07:40:34;102082.56;;;23.18;65.78
13709;BME280;54933;51.908;7.730;2023-05-25T07:42:59;102092.56;;;23.18;65.56
13709;BME280;54933;51.908;7.730;2023-05-25T07:45:25;102092.56;;;23.18;65.44
13709;BME280;54933;51.908;7.730;2023-05-25T07:47:50;102095.28;;;23.18;65.38
13709;BME280;54933;51.908;7.730;2023-05-25T07:50:16;102098.00;;;23.18;65.34
13709;BME280;54933;51.908;7.730;2023-05-25T07:52:41;102100.72;;;23.18;65.37
13709;BME280;54933;51.908;7.730;2023-05-25T07:55:07;102102.56;;;23.17;65.61
13709;BME280;54933;51.908;7.730;2023-05-25T07:57:33;102100.72;;;23.18;65.51
13709;BME280;54933;51.908;7.730;2023-05-25T07:59:59;102102.56;;;23.17;65.56
13709;BME280;54933;51.908;7.730;2023-05-25T08:02:24;102105.50;;;23.16;65.66
13709;BME280;54933;51.908;7.730;2023-05-25T08:04:49;102104.63;;;23.15;65.94
13709;BME280;54933;51.908;7.730;2023-05-25T08:07:15;102108.00;;;23.17;65.61
13709;BME280;54933;51.908;7.730;2023-05-25T08:09:40;102114.28;;;23.18;65.62
13709;BME280;54933;51.908;7.730;2023-05-25T08:12:05;102116.13;;;23.17;65.31
13709;BME280;54933;51.908;7.730;2023-05-25T08:14:31;102107.19;;;23.17;65.71
13709;BME280;54933;51.908;7.730;2023-05-25T08:16:56;102099.06;;;23.17;65.29
13709;BME280;54933;51.908;7.730;2023-05-25T08:19:21;102100.91;;;23.16;65.71
13709;BME280;54933;51.908;7.730;2023-05-25T08:21:46;102108.84;;;23.18;65.37
13709;BME280;54933;51.908;7.730;2023-05-25T08:24:12;102108.00;;;23.17;65.71
13709;BME280;54933;51.908;7.730;2023-05-25T08:26:37;102113.44;;;23.17;65.55
13709;BME280;54933;51.908;7.730;2023-05-25T08:29:04;102112.59;;;23.17;65.76
13709;BME280;54933;51.908;7.730;2023-05-25T08:31:30;102113.44;;;23.17;65.44
13709;BME280;54933;51.908;7.730;2023-05-25T08:33:56;102109.06;;;23.16;65.55
13709;BME280;54933;51.908;7.730;2023-05-25T08:36:23;102112.59;;;23.17;65.23
13709;BME280;54933;51.908;7.730;2023-05-25T08:38:48;102117.19;;;23.16;65.42
13709;BME280;54933;51.908;7.730;2023-05-25T08:41:14;102115.50;;;23.15;65.32
13709;BME280;54933;51.908;7.730;2023-05-25T08:43:40;102116.34;;;23.16;65.47
13709;BME280;54933;51.908;7.730;2023-05-25T08:46:07;102115.50;;;23.15;65.47
13709;BME280;54933;51.908;7.730;2023-05-25T08:48:34;102120.75;;;23.17;65.68
13709;BME280;54933;51.908;7.730;2023-05-25T08:51:06;102118.19;;;23.15;65.59
13709;BME280;54933;51.908;7.730;2023-05-25T08:53:35;102122.59;;;23.16;65.32
13709;BME280;54933;51.908;7.730;2023-05-25T08:56:09;102120.91;;;23.15;65.19
13709;BME280;54933;51.908;7.730;2023-05-25T08:58:44;102121.75;;;23.16;65.36
13709;BME280;54933;51.908;7.730;2023-05-25T09:01:13;102126.34;;;23.15;65.35
13709;BME280;54933;51.908;7.730;2023-05-25T09:03:40;102129.03;;;23.15;65.55
13709;BME280;54933;51.908;7.730;2023-05-25T09:06:05;102129.03;;;23.15;65.58
13709;BME280;54933;51.908;7.730;2023-05-25T09:08:31;102126.34;;;23.15;65.32
13709;BME280;54933;51.908;7.730;2023-05-25T09:10:57;102123.63;;;23.15;65.25
13709;BME280;54933;51.908;7.730;2023-05-25T09:13:22;102130.94;;;23.15;65.51
13709;BME280;54933;51.908;7.730;2023-05-25T09:15:48;102135.53;;;23.14;65.19
13709;BME280;54933;51.908;7.730;2023-05-25T09:18:14;102134.47;;;23.15;65.37
13709;BME280;54933;51.908;7.730;2023-05-25T09:20:39;102135.53;;;23.14;65.53
13709;BME280;54933;51.908;7.730;2023-05-25T09:23:04;102128.22;;;23.15;65.48
13709;BME280;54933;51.908;7.730;2023-05-25T09:25:30;102131.75;;;23.15;65.38
13709;BME280;54933;51.908;7.730;2023-05-25T09:27:56;102125.53;;;23.15;65.27
13709;BME280;54933;51.908;7.730;2023-05-25T09:30:23;102136.38;;;23.15;65.27
13709;BME280;54933;51.908;7.730;2023-05-25T09:32:48;102136.38;;;23.15;65.60
13709;BME280;54933;51.908;7.730;2023-05-25T09:35:15;102130.09;;;23.14;65.27
13709;BME280;54933;51.908;7.730;2023-05-25T09:37:41;102128.22;;;23.15;65.26
13709;BME280;54933;51.908;7.730;2023-05-25T09:40:08;102130.09;;;23.14;65.56
13709;BME280;54933;51.908;7.730;2023-05-25T09:42:35;102137.19;;;23.15;65.28
13709;BME280;54933;51.908;7.730;2023-05-25T09:45:01;102139.06;;;23.15;65.38
13709;BME280;54933;51.908;7.730;2023-05-25T09:47:27;102131.75;;;23.15;65.64
13709;BME280;54933;51.908;7.730;2023-05-25T09:49:53;102130.94;;;23.15;65.52
13709;BME280;54933;51.908;7.730;2023-05-25T09:52:18;102129.03;;;23.15;65.66
13709;BME280;54933;51.908;7.730;2023-05-25T09:54:48;102137.00;;;23.17;65.44
13709;BME280;54933;51.908;7.730;2023-05-25T09:57:18;102138.88;;;23.16;65.42
13709;BME280;54933;51.908;7.730;2023-05-25T09:59:44;102131.75;;;23.15;65.28
13709;BME280;54933;51.908;7.730;2023-05-25T10:02:11;102136.38;;;23.15;65.58
13709;BME280;54933;51.908;7.730;2023-05-25T10:04:37;102141.78;;;23.15;65.35
13709;BME280;54933;51.908;7.730;2023-05-25T10:07:03;102146.38;;;23.14;65.51
13709;BME280;54933;51.908;7.730;2023-05-25T10:09:29;102146.38;;;23.14;65.52
13709;BME280;54933;51.908;7.730;2023-05-25T10:11:56;102146.38;;;23.14;65.45
13709;BME280;54933;51.908;7.730;2023-05-25T10:14:25;102156.16;;;23.15;65.51
13709;BME280;54933;51.908;7.730;2023-05-25T10:16:53;102169.72;;;23.15;65.51
13709;BME280;54933;51.908;7.730;2023-05-25T10:19:39;102158.06;;;23.15;65.46
13709;BME280;54933;51.908;7.730;2023-05-25T10:22:21;102158.88;;;23.15;65.37
13709;BME280;54933;51.908;7.730;2023-05-25T10:25:07;102161.59;;;23.15;65.19
13709;BME280;54933;51.908;7.730;2023-05-25T10:27:38;102156.16;;;23.15;65.62
13709;BME280;54933;51.908;7.730;2023-05-25T10:30:05;102158.88;;;23.15;65.51
13709;BME280;54933;51.908;7.730;2023-05-25T10:32:31;102162.63;;;23.14;65.57
13709;BME280;54933;51.908;7.730;2023-05-25T10:34:59;102161.78;;;23.14;65.42
13709;BME280;54933;51.908;7.730;2023-05-25T10:37:25;102160.97;;;23.13;65.40
13709;BME280;54933;51.908;7.730;2023-05-25T10:39:54;102170.78;;;23.14;65.63
13709;BME280;54933;51.908;7.730;2023-05-25T10:42:21;102168.91;;;23.15;65.54
13709;BME280;54933;51.908;7.730;2023-05-25T10:44:47;102173.47;;;23.14;65.42
13709;BME280;54933;51.908;7.730;2023-05-25T10:47:14;102168.06;;;23.14;65.40
13709;BME280;54933;51.908;7.730;2023-05-25T10:49:51;102174.34;;;23.15;65.20
13709;BME280;54933;51.908;7.730;2023-05-25T10:52:18;102167.22;;;23.14;65.48
13709;BME280;54933;51.908;7.730;2023-05-25T10:54:48;102171.81;;;23.13;65.17
13709;BME280;54933;51.908;7.730;2023-05-25T10:57:21;102160.97;;;23.13;65.44
13709;BME280;54933;51.908;7.730;2023-05-25T10:59:51;102160.97;;;23.13;65.28
13709;BME280;54933;51.908;7.730;2023-05-25T11:02:19;102155.56;;;23.13;65.27
13709;BME280;54933;51.908;7.730;2023-05-25T11:04:48;102157.41;;;23.13;65.24
13709;BME280;54933;51.908;7.730;2023-05-25T11:07:14;102155.56;;;23.13;65.24
13709;BME280;54933;51.908;7.730;2023-05-25T11:09:42;102156.56;;;23.12;65.34
13709;BME280;54933;51.908;7.730;2023-05-25T11:12:17;102160.97;;;23.13;65.28
13709;BME280;54933;51.908;7.730;2023-05-25T11:14:43;102160.97;;;23.13;65.44
13709;BME280;54933;51.908;7.730;2023-05-25T11:17:18;102158.25;;;23.13;65.39
13709;BME280;54933;51.908;7.730;2023-05-25T11:19:47;102160.97;;;23.13;65.19
13709;BME280;54933;51.908;7.730;2023-05-25T11:22:14;102152.84;;;23.13;65.18
13709;BME280;54933;51.908;7.730;2023-05-25T11:24:43;102160.97;;;23.13;65.22
13709;BME280;54933;51.908;7.730;2023-05-25T11:27:12;102148.44;;;23.12;65.30
13709;BME280;54933;51.908;7.730;2023-05-25T11:29:38;102146.56;;;23.13;65.39
13709;BME280;54933;51.908;7.730;2023-05-25T11:32:05;102149.09;;;23.14;65.50
13709;BME280;54933;51.908;7.730;2023-05-25T11:34:35;102141.16;;;23.13;65.41
13709;BME280;54933;51.908;7.730;2023-05-25T11:37:00;102133.84;;;23.13;65.17
13709;BME280;54933;51.908;7.730;2023-05-25T11:39:26;102135.72;;;23.13;65.49
13709;BME280;54933;51.908;7.730;2023-05-25T11:41:54;102128.44;;;23.13;65.47
13709;BME280;54933;51.908;7.730;2023-05-25T11:44:31;102124.69;;;23.14;65.40
13709;BME280;54933;51.908;7.730;2023-05-25T11:47:00;102125.53;;;23.15;65.33
13709;BME280;54933;51.908;7.730;2023-05-25T11:49:26;102116.53;;;23.14;65.39
13709;BME280;54933;51.908;7.730;2023-05-25T11:51:53;102112.97;;;23.14;65.53
13709;BME280;54933;51.908;7.730;2023-05-25T11:54:26;102111.13;;;23.14;65.20
13709;BME280;54933;51.908;7.730;2023-05-25T11:56:53;102111.97;;;23.15;65.56
13709;BME280;54933;51.908;7.730;2023-05-25T11:59:21;102112.16;;;23.13;65.28
13709;BME280;54933;51.908;7.730;2023-05-25T12:01:56;102114.69;;;23.15;65.49
13709;BME280;54933;51.908;7.730;2023-05-25T12:04:22;102112.78;;;23.15;65.68
13709;BME280;54933;51.908;7.730;2023-05-25T12:06:47;102108.41;;;23.14;65.43
13709;BME280;54933;51.908;7.730;2023-05-25T12:09:18;102113.81;;;23.14;65.41
13709;BME280;54933;51.908;7.730;2023-05-25T12:11:44;102111.13;;;23.14;65.31
13709;BME280;54933;51.908;7.730;2023-05-25T12:14:10;102103.81;;;23.15;65.32
13709;BME280;54933;51.908;7.730;2023-05-25T12:16:36;102110.06;;;23.15;65.66
13709;BME280;54933;51.908;7.730;2023-05-25T12:19:06;102105.69;;;23.14;65.62
13709;BME280;54933;51.908;7.730;2023-05-25T12:21:31;102097.56;;;23.14;65.23
13709;BME280;54933;51.908;7.730;2023-05-25T12:23:57;102092.13;;;23.14;65.41
13709;BME280;54933;51.908;7.730;2023-05-25T12:26:23;102084.84;;;23.15;66.07
13709;BME280;54933;51.908;7.730;2023-05-25T12:29:03;102092.13;;;23.14;65.29
13709;BME280;54933;51.908;7.730;2023-05-25T12:31:33;102082.13;;;23.15;65.46
13709;BME280;54933;51.908;7.730;2023-05-25T12:34:02;102094.00;;;23.14;65.67
13709;BME280;54933;51.908;7.730;2023-05-25T12:39:37;102099.22;;;23.15;65.46
13709;BME280;54933;51.908;7.730;2023-05-25T12:42:03;102088.56;;;23.14;65.06
13709;BME280;54933;51.908;7.730;2023-05-25T12:44:34;102086.72;;;23.14;65.76
13709;BME280;54933;51.908;7.730;2023-05-25T12:47:13;102092.97;;;23.15;65.31
13709;BME280;54933;51.908;7.730;2023-05-25T12:49:41;102081.28;;;23.14;65.37
13709;BME280;54933;51.908;7.730;2023-05-25T12:52:07;102086.72;;;23.14;65.36